Time;durP1;ratioP1;P1;durP2;ratioP2;P2;SDS_P1;SDS_P2;PMS_P1;PMS_P2;Temp;Humidity;BMP_temperature;BMP_pressure;BME280_temperature;BME280_humidity;BME280_pressure;Samples;Min_cycle;Max_cycle;Signal;HPM_P1;HPM_P2
2023/06/12 00:02:17;;;;;;;6.95;2.67;;;23.70;47.60;;;;;;5034820;28;20033;-79
2023/06/12 00:04:44;;;;;;;5.47;3.25;;;23.70;47.80;;;;;;5034681;28;20034;-79
2023/06/12 00:07:11;;;;;;;4.50;2.67;;;23.70;47.90;;;;;;5033470;28;20044;-79
2023/06/12 00:09:37;;;;;;;5.32;2.63;;;23.60;48.00;;;;;;5033487;28;20055;-79
2023/06/12 00:12:02;;;;;;;6.32;3.10;;;23.60;48.70;;;;;;5033502;28;20512;-80
2023/06/12 00:14:28;;;;;;;4.70;2.70;;;23.50;48.10;;;;;;5034500;28;20025;-79
2023/06/12 00:16:54;;;;;;;5.18;2.65;;;23.50;48.20;;;;;;5033288;28;20079;-79
2023/06/12 00:19:20;;;;;;;5.45;2.65;;;23.50;48.20;;;;;;5033173;28;20112;-79
2023/06/12 00:21:46;;;;;;;5.32;2.78;;;23.40;48.30;;;;;;5034476;28;20462;-79
2023/06/12 00:24:11;;;;;;;6.28;2.95;;;23.40;48.30;;;;;;5034487;28;20116;-79
2023/06/12 00:26:38;;;;;;;4.40;2.42;;;23.40;48.50;;;;;;5016792;28;20021;-79
2023/06/12 00:29:04;;;;;;;7.85;3.03;;;23.30;48.60;;;;;;5034306;28;20507;-79
2023/06/12 00:31:30;;;;;;;4.72;2.65;;;23.30;48.60;;;;;;5033077;28;20021;-79
2023/06/12 00:33:55;;;;;;;5.22;2.70;;;23.30;48.70;;;;;;5033061;28;20033;-79
2023/06/12 00:36:22;;;;;;;6.85;3.05;;;23.20;48.70;;;;;;5033360;28;20490;-78
2023/06/12 00:38:48;;;;;;;5.00;2.60;;;23.20;48.90;;;;;;5032937;28;20558;-79
2023/06/12 00:41:13;;;;;;;6.43;2.78;;;23.10;49.00;;;;;;5016466;28;20044;-79
2023/06/12 00:43:39;;;;;;;5.28;2.67;;;23.10;49.10;;;;;;5034096;28;20029;-79
2023/06/12 00:46:06;;;;;;;5.68;2.80;;;23.10;49.10;;;;;;5032020;28;20470;-79
2023/06/12 00:48:32;;;;;;;8.05;3.05;;;23.00;49.10;;;;;;5032703;28;20463;-79
2023/06/12 00:50:59;;;;;;;4.55;2.53;;;23.00;49.30;;;;;;5033939;28;20467;-79
2023/06/12 00:53:25;;;;;;;4.03;2.17;;;23.00;49.30;;;;;;5032728;28;20021;-79
2023/06/12 00:55:51;;;;;;;6.15;2.85;;;22.90;49.40;;;;;;5032343;28;20079;-79
2023/06/12 00:58:17;;;;;;;4.25;2.33;;;22.90;49.40;;;;;;5033714;28;20025;-79
2023/06/12 01:00:43;;;;;;;4.63;2.50;;;22.90;49.50;;;;;;5032385;28;20108;-80
2023/06/12 01:03:12;;;;;;;5.70;2.65;;;22.80;49.50;;;;;;5033490;28;20021;-79
2023/06/12 01:05:42;;;;;;;6.95;2.63;;;22.80;49.60;;;;;;5033936;28;20030;-79
2023/06/12 01:08:51;;;;;;;4.57;2.72;;;22.70;49.80;;;;;;5033987;28;20083;-79
2023/06/12 01:11:18;;;;;;;5.78;2.53;;;22.70;49.90;;;;;;5011694;28;20168;-79
2023/06/12 01:13:43;;;;;;;4.68;2.83;;;22.70;49.90;;;;;;5029044;28;20041;-79
2023/06/12 01:16:09;;;;;;;7.15;2.55;;;22.50;49.90;;;;;;5032274;28;20033;-79
2023/06/12 01:18:35;;;;;;;5.50;3.22;;;22.50;50.10;;;;;;5033674;28;20493;-79
2023/06/12 01:21:12;;;;;;;5.90;3.42;;;22.50;50.40;;;;;;5032859;28;20022;-79
2023/06/12 01:24:00;;;;;;;6.03;2.70;;;22.50;50.40;;;;;;5033263;28;20021;-79
2023/06/12 01:26:33;;;;;;;6.35;2.97;;;22.40;50.50;;;;;;5033375;28;20030;-79
2023/06/12 01:29:16;;;;;;;4.47;2.55;;;22.40;50.60;;;;;;5032159;28;20032;-80
2023/06/12 01:32:07;;;;;;;5.15;2.80;;;22.30;50.80;;;;;;5033360;28;20021;-79
2023/06/12 01:34:54;;;;;;;6.88;3.13;;;22.30;50.80;;;;;;5031979;28;20504;-79
2023/06/12 01:37:50;;;;;;;5.63;3.08;;;22.20;51.00;;;;;;5033256;28;20052;-79
2023/06/12 01:40:17;;;;;;;5.72;2.47;;;22.20;51.00;;;;;;5023490;28;20367;-79
2023/06/12 01:42:43;;;;;;;4.78;2.28;;;22.20;51.00;;;;;;5032544;28;20029;-80
2023/06/12 01:45:10;;;;;;;5.88;2.60;;;22.10;51.20;;;;;;5033292;28;20018;-80
2023/06/12 01:47:35;;;;;;;5.70;2.95;;;22.10;51.40;;;;;;5033214;28;20128;-79
2023/06/12 01:50:03;;;;;;;4.05;2.60;;;22.00;51.60;;;;;;5033246;28;20149;-79
2023/06/12 01:52:29;;;;;;;4.32;2.85;;;22.00;51.90;;;;;;5033225;28;20017;-79
2023/06/12 01:54:58;;;;;;;4.75;2.65;;;21.90;52.00;;;;;;5015300;28;20543;-79
2023/06/12 01:57:23;;;;;;;5.40;2.90;;;21.90;52.20;;;;;;5033484;28;20051;-79
2023/06/12 01:59:51;;;;;;;6.20;3.58;;;21.90;52.50;;;;;;5037159;28;20553;-79
2023/06/12 02:02:17;;;;;;;5.38;2.97;;;21.80;52.50;;;;;;5035655;28;20398;-79
2023/06/12 02:04:42;;;;;;;5.35;2.65;;;21.80;52.60;;;;;;5019318;28;20033;-78
2023/06/12 02:07:08;;;;;;;4.22;2.33;;;21.80;52.70;;;;;;5037247;28;20038;-79
2023/06/12 02:09:34;;;;;;;5.28;2.78;;;21.80;52.90;;;;;;5036558;28;20067;-79
2023/06/12 02:12:01;;;;;;;7.25;3.03;;;21.70;52.90;;;;;;5035497;28;20033;-79
2023/06/12 02:14:27;;;;;;;8.60;2.95;;;21.60;52.90;;;;;;5035510;28;20453;-79
2023/06/12 02:16:56;;;;;;;6.57;2.47;;;21.60;53.00;;;;;;5035347;28;20087;-79
2023/06/12 02:19:22;;;;;;;6.28;2.85;;;21.50;53.20;;;;;;5036578;28;20034;-80
2023/06/12 02:21:50;;;;;;;5.45;3.10;;;21.50;53.30;;;;;;5036507;28;20025;-79
2023/06/12 02:24:16;;;;;;;5.18;2.92;;;21.40;53.50;;;;;;5036467;28;20037;-79
2023/06/12 02:26:41;;;;;;;6.10;2.60;;;21.40;53.70;;;;;;5035045;28;20431;-79
2023/06/12 02:29:12;;;;;;;5.82;3.10;;;21.40;53.70;;;;;;5036323;28;20036;-79
2023/06/12 02:31:38;;;;;;;5.18;2.45;;;21.30;53.70;;;;;;5036419;28;20029;-79
2023/06/12 02:34:04;;;;;;;7.68;3.08;;;21.30;53.60;;;;;;5035045;28;20031;-79
2023/06/12 02:36:30;;;;;;;4.95;3.00;;;21.30;53.60;;;;;;5036490;28;20087;-79
2023/06/12 02:38:56;;;;;;;6.32;3.40;;;21.20;53.40;;;;;;5035044;28;20026;-79
2023/06/12 02:41:22;;;;;;;7.65;3.22;;;21.20;53.60;;;;;;5036290;28;20108;-79
2023/06/12 02:43:48;;;;;;;5.60;3.03;;;21.10;53.80;;;;;;5034982;28;20053;-79
2023/06/12 02:46:14;;;;;;;4.68;2.78;;;21.10;54.10;;;;;;5036129;28;20025;-79
2023/06/12 02:48:39;;;;;;;4.57;2.70;;;21.10;54.30;;;;;;5035046;28;20076;-79
2023/06/12 02:51:05;;;;;;;6.10;3.10;;;21.10;54.60;;;;;;5018284;28;20032;-79
2023/06/12 02:53:31;;;;;;;6.32;3.30;;;21.00;54.70;;;;;;5036127;28;20034;-79
2023/06/12 02:55:57;;;;;;;4.88;2.90;;;21.00;54.70;;;;;;5035847;28;20079;-79
2023/06/12 02:58:23;;;;;;;7.13;3.40;;;20.90;54.60;;;;;;5034560;28;20355;-78
2023/06/12 03:00:48;;;;;;;5.18;3.22;;;20.90;54.50;;;;;;5034876;28;20470;-79
2023/06/12 03:03:14;;;;;;;5.55;2.90;;;20.80;54.50;;;;;;5034422;28;20056;-79
2023/06/12 03:05:41;;;;;;;5.85;2.92;;;20.90;54.80;;;;;;5036006;28;20049;-79
2023/06/12 03:08:08;;;;;;;4.55;2.67;;;20.80;54.50;;;;;;5035966;28;20087;-79
2023/06/12 03:10:34;;;;;;;5.53;2.90;;;20.70;54.70;;;;;;5034498;28;20053;-79
2023/06/12 03:13:00;;;;;;;8.52;3.10;;;20.70;54.70;;;;;;5035579;28;20052;-79
2023/06/12 03:15:26;;;;;;;9.65;3.47;;;20.70;55.00;;;;;;5035762;28;20033;-79
2023/06/12 03:17:52;;;;;;;5.63;2.95;;;20.70;54.90;;;;;;5035769;28;20029;-79
2023/06/12 03:20:18;;;;;;;4.47;2.85;;;20.60;54.90;;;;;;5034715;28;20092;-79
2023/06/12 03:22:43;;;;;;;5.22;2.75;;;20.60;55.00;;;;;;5035663;28;20368;-79
2023/06/12 03:25:10;;;;;;;5.38;2.50;;;20.60;55.10;;;;;;5035774;28;20033;-79
2023/06/12 03:27:37;;;;;;;5.50;2.63;;;20.50;55.10;;;;;;5035994;28;20050;-79
2023/06/12 03:30:03;;;;;;;5.22;2.70;;;20.50;55.40;;;;;;5035786;28;20037;-79
2023/06/12 03:32:29;;;;;;;4.38;2.28;;;20.40;55.50;;;;;;5034344;28;20103;-79
2023/06/12 03:34:55;;;;;;;7.57;2.83;;;20.40;55.60;;;;;;5034121;28;20108;-80
2023/06/12 03:37:22;;;;;;;4.80;2.67;;;20.40;55.90;;;;;;5035205;28;20053;-79
2023/06/12 03:39:47;;;;;;;11.48;3.05;;;20.40;55.90;;;;;;5033819;28;20170;-74
2023/06/12 03:42:13;;;;;;;4.72;2.80;;;20.40;56.10;;;;;;5033931;28;20053;-73
2023/06/12 03:44:39;;;;;;;9.73;3.15;;;20.30;56.00;;;;;;5035115;28;20037;-73
2023/06/12 03:47:05;;;;;;;5.60;3.13;;;20.30;56.10;;;;;;5033615;28;20025;-74
2023/06/12 03:49:30;;;;;;;7.18;2.97;;;20.30;56.00;;;;;;5033714;28;20482;-73
2023/06/12 03:51:56;;;;;;;5.18;2.85;;;20.30;56.10;;;;;;5033667;28;20156;-73
2023/06/12 03:54:22;;;;;;;8.15;2.70;;;20.30;56.20;;;;;;5033974;28;20522;-73
2023/06/12 03:56:48;;;;;;;4.57;2.63;;;20.30;56.30;;;;;;5033558;28;20057;-74
2023/06/12 03:59:14;;;;;;;4.88;2.90;;;20.20;56.30;;;;;;5016960;28;20041;-74
2023/06/12 04:01:42;;;;;;;4.72;2.60;;;20.20;56.40;;;;;;5034871;28;20025;-73
2023/06/12 04:04:09;;;;;;;8.02;3.70;;;20.20;56.40;;;;;;5033373;28;20549;-73
2023/06/12 04:06:40;;;;;;;5.88;3.20;;;20.20;56.40;;;;;;5034579;28;20095;-73
2023/06/12 04:09:09;;;;;;;6.63;2.75;;;20.20;56.40;;;;;;5017446;28;20077;-73
2023/06/12 04:11:35;;;;;;;7.28;2.53;;;20.20;56.50;;;;;;5016884;28;20025;-73
2023/06/12 04:14:01;;;;;;;4.55;2.53;;;20.20;56.50;;;;;;5033250;28;20444;-73
2023/06/12 04:16:27;;;;;;;9.25;3.70;;;20.20;56.50;;;;;;5033045;28;20072;-73
2023/06/12 04:18:53;;;;;;;6.95;2.90;;;20.20;57.20;;;;;;5016481;28;20061;-73
2023/06/12 04:21:21;;;;;;;6.60;2.75;;;20.20;56.70;;;;;;5034307;28;20032;-73
2023/06/12 04:23:47;;;;;;;5.63;2.58;;;20.20;56.80;;;;;;5032995;28;20033;-73
2023/06/12 04:26:14;;;;;;;4.88;2.67;;;20.20;56.90;;;;;;5016548;28;20392;-73
2023/06/12 04:28:41;;;;;;;6.60;2.67;;;20.20;56.90;;;;;;5033019;28;20026;-73
2023/06/12 04:31:07;;;;;;;7.65;2.63;;;20.20;56.90;;;;;;5034220;28;20064;-73
2023/06/12 04:33:35;;;;;;;5.28;2.85;;;20.20;56.90;;;;;;5032912;28;20040;-73
2023/06/12 04:36:02;;;;;;;6.82;2.83;;;20.30;57.10;;;;;;5046220;28;20113;-73
2023/06/12 04:38:31;;;;;;;8.85;3.47;;;20.30;57.30;;;;;;5053370;28;20025;-73
2023/06/12 04:41:00;;;;;;;5.18;2.75;;;20.30;57.40;;;;;;5034856;28;20067;-73
2023/06/12 04:43:26;;;;;;;5.72;2.95;;;20.30;57.40;;;;;;5053359;28;20040;-73
2023/06/12 04:45:53;;;;;;;7.20;3.38;;;20.30;57.40;;;;;;5052453;28;20029;-74
2023/06/12 04:48:19;;;;;;;5.90;2.88;;;20.30;57.50;;;;;;5054079;28;20025;-74
2023/06/12 04:50:48;;;;;;;6.45;2.72;;;20.30;57.50;;;;;;5052385;28;20078;-74
2023/06/12 04:53:17;;;;;;;9.10;3.22;;;20.40;57.70;;;;;;5053651;28;20036;-73
2023/06/12 04:55:50;;;;;;;5.03;2.88;;;20.40;57.70;;;;;;5052436;28;20021;-73
2023/06/12 04:58:17;;;;;;;5.75;2.72;;;20.40;57.50;;;;;;5052306;28;20394;-73
2023/06/12 05:00:44;;;;;;;4.82;2.47;;;20.40;57.40;;;;;;5021566;28;20044;-73
2023/06/12 05:03:10;;;;;;;6.90;3.03;;;20.50;57.60;;;;;;5049159;28;20079;-73
2023/06/12 05:05:36;;;;;;;4.82;2.80;;;20.50;57.60;;;;;;5033408;28;20025;-73
2023/06/12 05:08:01;;;;;;;7.28;2.92;;;20.50;57.50;;;;;;5032067;28;20036;-73
2023/06/12 05:10:27;;;;;;;9.45;3.65;;;20.50;57.60;;;;;;5033584;28;20510;-73
2023/06/12 05:12:52;;;;;;;5.18;3.13;;;20.50;57.60;;;;;;5033967;28;20045;-73
2023/06/12 05:15:18;;;;;;;8.55;3.83;;;20.50;58.20;;;;;;5044376;28;20065;-73
2023/06/12 05:17:44;;;;;;;7.65;3.58;;;20.60;57.60;;;;;;5023910;28;20540;-74
2023/06/12 05:20:09;;;;;;;7.30;3.15;;;20.50;57.60;;;;;;5052994;28;20033;-73
2023/06/12 05:22:36;;;;;;;6.32;3.08;;;20.60;57.60;;;;;;5036610;28;20041;-73
2023/06/12 05:25:03;;;;;;;4.93;2.47;;;20.60;57.60;;;;;;5044839;28;20026;-73
2023/06/12 05:27:28;;;;;;;6.22;3.00;;;20.60;57.50;;;;;;5049080;28;20055;-74
2023/06/12 05:29:54;;;;;;;5.25;2.78;;;20.60;58.20;;;;;;5051337;28;20040;-73
2023/06/12 05:32:20;;;;;;;8.88;3.17;;;20.70;57.50;;;;;;5046310;28;20272;-74
2023/06/12 05:34:45;;;;;;;5.85;2.90;;;20.70;57.60;;;;;;5051325;28;20037;-73
2023/06/12 05:37:11;;;;;;;6.05;3.22;;;20.70;57.60;;;;;;5049364;28;20060;-73
2023/06/12 05:39:36;;;;;;;6.20;3.03;;;20.70;57.60;;;;;;5034691;28;20106;-74
2023/06/12 05:42:02;;;;;;;6.05;3.22;;;20.70;57.70;;;;;;5052698;28;20469;-74
2023/06/12 05:44:28;;;;;;;6.50;3.53;;;20.80;57.80;;;;;;5051562;28;20037;-73
2023/06/12 05:46:53;;;;;;;5.95;3.13;;;20.80;57.70;;;;;;5039228;28;20354;-74
2023/06/12 05:49:19;;;;;;;8.35;3.22;;;20.80;57.40;;;;;;5016529;28;20029;-74
2023/06/12 05:51:45;;;;;;;6.50;3.15;;;20.90;57.20;;;;;;5033021;28;20100;-74
2023/06/12 05:54:11;;;;;;;7.25;3.63;;;20.90;57.10;;;;;;5033052;28;20038;-74
2023/06/12 05:56:36;;;;;;;7.13;3.78;;;20.90;56.90;;;;;;5031741;28;20029;-73
2023/06/12 05:59:02;;;;;;;9.45;3.35;;;20.90;56.80;;;;;;5032851;28;20045;-74
2023/06/12 06:01:31;;;;;;;7.05;3.35;;;21.00;56.70;;;;;;5049373;28;20025;-74
2023/06/12 06:03:58;;;;;;;6.03;3.65;;;21.00;56.70;;;;;;5051400;28;20037;-74
2023/06/12 06:06:24;;;;;;;8.30;3.58;;;21.10;56.70;;;;;;5052026;28;20029;-73
2023/06/12 06:08:49;;;;;;;7.15;3.28;;;21.10;56.60;;;;;;5052576;28;20049;-73
2023/06/12 06:11:15;;;;;;;7.93;3.10;;;21.20;56.50;;;;;;5051240;28;20091;-73
2023/06/12 06:13:43;;;;;;;9.38;3.65;;;21.20;56.40;;;;;;5051408;28;20025;-73
2023/06/12 06:16:10;;;;;;;7.03;3.67;;;21.20;56.50;;;;;;5052630;28;20457;-73
2023/06/12 06:18:40;;;;;;;8.13;4.00;;;21.30;56.30;;;;;;5018787;28;20036;-74
2023/06/12 06:21:05;;;;;;;7.22;3.42;;;21.30;56.20;;;;;;5052295;28;20056;-75
2023/06/12 06:23:32;;;;;;;8.55;3.45;;;21.40;56.20;;;;;;5035018;28;20426;-74
2023/06/12 06:25:57;;;;;;;7.43;3.88;;;21.40;56.20;;;;;;5051499;28;20116;-75
2023/06/12 06:28:23;;;;;;;8.57;3.35;;;21.50;56.20;;;;;;5051130;28;20128;-75
2023/06/12 06:30:49;;;;;;;7.65;3.53;;;21.50;56.00;;;;;;5014451;28;20139;-75
2023/06/12 06:33:14;;;;;;;6.18;3.65;;;21.50;56.00;;;;;;5051516;28;20060;-76
2023/06/12 06:35:40;;;;;;;7.18;3.78;;;21.50;56.10;;;;;;5018128;28;20078;-75
2023/06/12 06:38:06;;;;;;;7.50;3.67;;;21.60;55.90;;;;;;5052409;28;20032;-75
2023/06/12 06:40:31;;;;;;;6.40;3.55;;;21.70;55.90;;;;;;5050975;28;20064;-74
2023/06/12 06:42:57;;;;;;;6.85;3.47;;;21.70;55.80;;;;;;5036817;28;20159;-75
2023/06/12 06:45:22;;;;;;;8.00;3.22;;;21.80;55.70;;;;;;5016487;28;20092;-74
2023/06/12 06:47:48;;;;;;;6.30;3.50;;;21.80;55.80;;;;;;5001720;28;20029;-74
2023/06/12 06:50:14;;;;;;;7.93;3.65;;;21.90;55.70;;;;;;5018324;28;20037;-74
2023/06/12 06:52:40;;;;;;;6.35;3.35;;;21.90;55.60;;;;;;5034560;28;20114;-74
2023/06/12 06:55:06;;;;;;;5.85;3.08;;;21.90;55.60;;;;;;5034467;28;20033;-73
2023/06/12 06:57:33;;;;;;;8.55;3.92;;;22.00;55.60;;;;;;5050569;28;20029;-74
2023/06/12 07:00:02;;;;;;;6.13;3.90;;;22.10;55.60;;;;;;5029965;28;20307;-75
2023/06/12 07:02:28;;;;;;;9.35;3.80;;;22.10;55.40;;;;;;5054785;28;20017;-74
2023/06/12 07:04:54;;;;;;;6.45;3.92;;;22.20;55.40;;;;;;5051872;28;20040;-75
2023/06/12 07:07:19;;;;;;;7.40;3.45;;;22.20;55.20;;;;;;5020098;28;20067;-75
2023/06/12 07:09:45;;;;;;;7.72;4.05;;;22.20;55.10;;;;;;5053690;28;20060;-75
2023/06/12 07:12:11;;;;;;;12.60;4.32;;;22.30;55.20;;;;;;5037193;28;20116;-75
2023/06/12 07:14:37;;;;;;;7.38;4.13;;;22.40;55.10;;;;;;5053986;28;20067;-74
2023/06/12 07:17:03;;;;;;;9.68;3.88;;;22.40;55.10;;;;;;5053735;28;20056;-74
2023/06/12 07:19:30;;;;;;;6.28;3.88;;;22.50;55.10;;;;;;5054339;28;20036;-75
2023/06/12 07:21:56;;;;;;;7.10;3.80;;;22.50;55.10;;;;;;5038458;28;20040;-75
2023/06/12 07:24:21;;;;;;;6.30;3.42;;;22.60;55.10;;;;;;5023654;28;20025;-74
2023/06/12 07:26:47;;;;;;;7.32;3.92;;;22.60;55.00;;;;;;5036675;28;20478;-75
2023/06/12 07:29:13;;;;;;;5.82;4.00;;;22.60;55.00;;;;;;5053725;28;20033;-75
2023/06/12 07:31:38;;;;;;;6.70;3.22;;;22.70;55.00;;;;;;5054974;28;20029;-74
2023/06/12 07:34:04;;;;;;;5.95;3.50;;;22.70;55.00;;;;;;5055036;28;20082;-75
2023/06/12 07:36:35;;;;;;;6.65;3.40;;;22.70;55.00;;;;;;5037655;28;20025;-74
2023/06/12 07:39:01;;;;;;;6.10;3.67;;;22.80;55.10;;;;;;5054074;28;20036;-74
2023/06/12 07:41:27;;;;;;;5.68;3.78;;;22.80;55.20;;;;;;5055044;28;20712;-74
2023/06/12 07:43:52;;;;;;;7.95;3.70;;;22.80;55.00;;;;;;5032867;28;20057;-74
2023/06/12 07:46:18;;;;;;;6.72;3.50;;;22.90;55.10;;;;;;5055066;28;20025;-74
2023/06/12 07:48:43;;;;;;;6.50;4.18;;;22.90;55.00;;;;;;5053948;28;20036;-75
2023/06/12 07:51:09;;;;;;;6.30;3.85;;;23.00;55.00;;;;;;5053530;28;20033;-75
2023/06/12 07:53:35;;;;;;;6.15;3.85;;;23.00;55.00;;;;;;5037126;28;20029;-74
2023/06/12 07:56:01;;;;;;;7.43;3.60;;;23.10;55.20;;;;;;5054753;28;20499;-74
2023/06/12 07:58:27;;;;;;;7.35;3.95;;;23.20;55.30;;;;;;5053439;28;20029;-74
2023/06/12 08:00:54;;;;;;;5.72;3.78;;;23.20;55.30;;;;;;5037004;28;20078;-75
2023/06/12 08:03:24;;;;;;;8.18;3.60;;;23.30;55.40;;;;;;5054723;28;20062;-75
2023/06/12 08:05:52;;;;;;;5.95;3.00;;;23.40;55.40;;;;;;5054705;28;20027;-75
2023/06/12 08:08:18;;;;;;;7.68;3.72;;;23.40;55.40;;;;;;5037101;28;20082;-75
2023/06/12 08:10:44;;;;;;;5.68;3.35;;;23.50;55.40;;;;;;5054265;28;20478;-74
2023/06/12 08:13:09;;;;;;;7.95;3.20;;;23.50;55.40;;;;;;5046637;28;20037;-74
2023/06/12 08:15:36;;;;;;;6.82;3.47;;;23.60;55.40;;;;;;5039380;28;20442;-75
2023/06/12 08:18:01;;;;;;;6.97;3.85;;;23.70;55.40;;;;;;5031967;28;20048;-75
2023/06/12 08:20:29;;;;;;;6.28;3.90;;;23.70;55.20;;;;;;5052932;28;20488;-74
2023/06/12 08:22:57;;;;;;;6.45;3.38;;;23.80;55.20;;;;;;5052756;28;20033;-74
2023/06/12 08:25:23;;;;;;;6.32;4.15;;;23.80;55.20;;;;;;5036363;28;20025;-73
2023/06/12 08:27:49;;;;;;;8.20;4.35;;;23.90;55.20;;;;;;5054144;28;20032;-75
2023/06/12 08:30:15;;;;;;;8.10;3.85;;;24.00;55.30;;;;;;5054002;28;20036;-74
2023/06/12 08:32:40;;;;;;;8.45;3.65;;;24.10;55.20;;;;;;5035983;28;20389;-74
2023/06/12 08:35:06;;;;;;;7.03;4.05;;;24.10;55.00;;;;;;5046710;28;20025;-75
2023/06/12 08:37:33;;;;;;;6.90;4.03;;;24.20;55.00;;;;;;5046398;28;20036;-74
2023/06/12 08:40:00;;;;;;;9.05;3.88;;;24.30;54.80;;;;;;5044878;28;20033;-74
2023/06/12 08:42:26;;;;;;;6.72;3.78;;;24.30;54.60;;;;;;5044148;28;20064;-75
2023/06/12 08:45:01;;;;;;;6.50;3.53;;;24.40;54.50;;;;;;5051983;28;20056;-75
2023/06/12 08:47:32;;;;;;;7.63;3.78;;;24.50;54.30;;;;;;5051211;28;20021;-74
2023/06/12 08:49:58;;;;;;;6.13;3.50;;;24.60;54.10;;;;;;5051220;28;20060;-74
2023/06/12 08:52:24;;;;;;;5.53;3.45;;;24.70;53.70;;;;;;5035619;28;20053;-75
2023/06/12 08:54:51;;;;;;;7.95;4.43;;;24.80;53.50;;;;;;5044700;28;20025;-75
2023/06/12 08:57:19;;;;;;;7.30;4.35;;;24.80;53.40;;;;;;5045473;28;20029;-75
2023/06/12 08:59:45;;;;;;;4.97;3.45;;;24.90;53.30;;;;;;5047777;28;20374;-75
2023/06/12 09:02:11;;;;;;;5.50;3.80;;;24.90;53.20;;;;;;5052857;28;20099;-75
2023/06/12 09:04:59;;;;;;;9.57;3.80;;;25.00;52.90;;;;;;5051509;28;20037;-75
2023/06/12 09:07:28;;;;;;;5.35;3.85;;;25.10;52.60;;;;;;5048104;28;20022;-76
2023/06/12 09:09:53;;;;;;;5.95;3.75;;;25.10;52.30;;;;;;5041571;28;20516;-75
2023/06/12 09:12:19;;;;;;;5.20;3.63;;;25.20;52.10;;;;;;5053198;28;20060;-75
2023/06/12 09:14:48;;;;;;;5.05;3.80;;;25.30;52.00;;;;;;5051266;28;20021;-75
2023/06/12 09:17:13;;;;;;;6.35;3.67;;;25.40;51.80;;;;;;5019226;28;20033;-76
2023/06/12 09:19:46;;;;;;;9.15;3.88;;;25.40;51.50;;;;;;5035266;28;20120;-75
2023/06/12 09:22:12;;;;;;;6.47;4.07;;;25.40;51.30;;;;;;5049490;28;20100;-75
2023/06/12 09:24:39;;;;;;;7.78;4.25;;;25.50;51.00;;;;;;5050796;28;20052;-75
2023/06/12 09:27:04;;;;;;;5.97;3.95;;;25.60;50.80;;;;;;5051171;28;20100;-75
2023/06/12 09:29:34;;;;;;;7.10;4.43;;;25.60;50.60;;;;;;5052575;28;20450;-75
2023/06/12 09:32:02;;;;;;;6.05;3.60;;;25.70;50.50;;;;;;5051848;28;20116;-77
2023/06/12 09:34:28;;;;;;;7.63;3.97;;;25.80;50.20;;;;;;5035556;28;20082;-77
2023/06/12 09:36:55;;;;;;;7.82;3.58;;;25.90;50.00;;;;;;5051736;28;20033;-77
2023/06/12 09:39:26;;;;;;;6.80;3.53;;;25.90;50.40;;;;;;5051682;28;20036;-78
2023/06/12 09:41:52;;;;;;;8.52;3.78;;;26.00;49.50;;;;;;5046457;28;20017;-77
2023/06/12 09:44:25;;;;;;;8.65;3.92;;;26.10;49.40;;;;;;5042614;28;20534;-78
2023/06/12 09:46:51;;;;;;;6.65;3.70;;;26.20;49.20;;;;;;5041842;28;20407;-77
2023/06/12 09:49:24;;;;;;;5.38;3.50;;;26.30;49.10;;;;;;5042450;28;20137;-77
2023/06/12 09:51:51;;;;;;;5.93;3.85;;;26.30;48.70;;;;;;5042764;28;20025;-76
2023/06/12 09:54:18;;;;;;;4.97;3.28;;;26.40;48.60;;;;;;5034986;28;20025;-77
2023/06/12 09:56:53;;;;;;;6.35;3.63;;;26.40;48.10;;;;;;5050985;28;20025;-78
2023/06/12 09:59:21;;;;;;;7.85;3.42;;;26.50;47.70;;;;;;5067738;28;20036;-77
2023/06/12 10:01:53;;;;;;;4.30;3.05;;;26.50;47.30;;;;;;5066478;28;20508;-78
2023/06/12 10:04:35;;;;;;;5.00;3.35;;;26.60;46.90;;;;;;5053280;28;20588;-78
2023/06/12 10:07:11;;;;;;;7.80;3.85;;;26.70;46.40;;;;;;5051949;28;20100;-75
2023/06/12 10:09:37;;;;;;;4.97;3.33;;;26.80;46.20;;;;;;5051423;28;20124;-77
2023/06/12 10:12:04;;;;;;;6.68;2.92;;;26.90;45.80;;;;;;5049746;28;20069;-77
2023/06/12 10:14:30;;;;;;;5.97;3.28;;;26.90;45.40;;;;;;5046053;28;20033;-76
2023/06/12 10:16:57;;;;;;;5.68;2.70;;;27.00;45.00;;;;;;5038655;28;20038;-76
2023/06/12 10:19:26;;;;;;;5.22;3.28;;;27.10;45.00;;;;;;5048663;28;20071;-76
2023/06/12 10:21:55;;;;;;;4.72;2.97;;;27.20;44.90;;;;;;5055677;28;20021;-75
2023/06/12 10:24:22;;;;;;;4.82;3.13;;;27.20;44.80;;;;;;5071137;28;20037;-73
2023/06/12 10:26:49;;;;;;;6.95;3.03;;;27.20;44.50;;;;;;5076504;28;20055;-76
2023/06/12 10:29:30;;;;;;;5.25;3.33;;;27.30;44.20;;;;;;5075270;28;20101;-76
2023/06/12 10:32:15;;;;;;;4.63;3.15;;;27.40;43.50;;;;;;5073617;28;20453;-75
2023/06/12 10:34:43;;;;;;;5.40;3.05;;;27.50;42.90;;;;;;5075884;28;20055;-75
2023/06/12 10:37:30;;;;;;;8.65;3.20;;;27.60;43.00;;;;;;5075674;28;20116;-75
2023/06/12 10:40:05;;;;;;;6.43;3.05;;;27.80;42.60;;;;;;5070365;28;20025;-74
2023/06/12 10:42:59;;;;;;;4.60;2.95;;;28.00;42.70;;;;;;5056202;28;20016;-75
2023/06/12 10:45:33;;;;;;;5.38;2.33;;;28.20;42.60;;;;;;5054894;28;20051;-75
2023/06/12 10:48:13;;;;;;;4.93;3.15;;;28.30;42.60;;;;;;5055921;28;20017;-75
2023/06/12 10:50:50;;;;;;;6.32;2.75;;;28.50;42.40;;;;;;5038365;28;20033;-75
2023/06/12 10:53:21;;;;;;;5.82;3.38;;;28.80;42.30;;;;;;5054613;28;20016;-75
2023/06/12 10:55:47;;;;;;;4.85;2.67;;;29.00;42.20;;;;;;5053181;28;20177;-76
2023/06/12 10:58:23;;;;;;;4.28;3.05;;;29.10;42.10;;;;;;5047789;28;20127;-75
2023/06/12 11:00:51;;;;;;;4.97;3.38;;;29.30;42.10;;;;;;5035820;28;20065;-75
2023/06/12 11:03:25;;;;;;;5.55;3.05;;;29.50;42.20;;;;;;5040403;28;20033;-75
2023/06/12 11:06:12;;;;;;;7.55;3.35;;;29.70;41.80;;;;;;5041363;28;20056;-75
2023/06/12 11:08:40;;;;;;;5.68;3.42;;;29.90;41.60;;;;;;5045704;28;20029;-75
2023/06/12 11:11:10;;;;;;;6.30;3.03;;;30.20;41.70;;;;;;5047483;28;20067;-75
2023/06/12 11:13:40;;;;;;;5.15;3.22;;;30.40;41.40;;;;;;5029375;28;20036;-75
2023/06/12 11:16:05;;;;;;;4.38;2.97;;;30.50;41.30;;;;;;5045413;28;20053;-75
2023/06/12 11:18:31;;;;;;;5.78;3.22;;;30.70;41.20;;;;;;5040160;28;20062;-76
2023/06/12 11:20:57;;;;;;;4.93;3.10;;;30.90;41.20;;;;;;5048040;28;20040;-75
2023/06/12 11:23:24;;;;;;;5.20;2.95;;;31.10;41.10;;;;;;5052559;28;20024;-76
2023/06/12 11:25:53;;;;;;;6.05;2.80;;;31.40;41.60;;;;;;5054318;28;20044;-76
2023/06/12 11:28:23;;;;;;;6.68;3.30;;;31.60;40.80;;;;;;5053957;28;20377;-76
2023/06/12 11:30:50;;;;;;;6.60;3.63;;;31.70;40.60;;;;;;5053610;28;20059;-76
2023/06/12 11:33:16;;;;;;;7.25;3.17;;;32.00;41.20;;;;;;5045447;28;20036;-75
2023/06/12 11:35:43;;;;;;;4.15;2.80;;;32.20;40.50;;;;;;5045109;28;20036;-75
2023/06/12 11:38:12;;;;;;;5.10;3.45;;;32.40;40.20;;;;;;5042613;28;20032;-76
2023/06/12 11:40:39;;;;;;;4.85;3.00;;;32.50;40.00;;;;;;5044138;28;20033;-75
2023/06/12 11:43:05;;;;;;;4.63;2.80;;;32.80;40.00;;;;;;5044831;28;20056;-75
2023/06/12 11:45:31;;;;;;;3.95;3.08;;;33.00;39.90;;;;;;5044396;28;20481;-76
2023/06/12 11:47:59;;;;;;;8.68;3.20;;;33.10;39.70;;;;;;5047989;28;20036;-76
2023/06/12 11:50:25;;;;;;;5.38;3.22;;;33.30;39.80;;;;;;5054750;28;20068;-76
2023/06/12 11:52:51;;;;;;;4.65;2.75;;;33.50;39.70;;;;;;5047480;28;20025;-75
2023/06/12 11:55:17;;;;;;;5.88;3.30;;;33.70;39.50;;;;;;5047811;28;20025;-74
2023/06/12 11:57:50;;;;;;;4.80;2.80;;;33.90;39.30;;;;;;5043533;28;20032;-77
2023/06/12 12:00:18;;;;;;;7.88;2.90;;;34.00;39.20;;;;;;5044046;28;20493;-74
2023/06/12 12:02:55;;;;;;;8.23;3.00;;;34.10;39.20;;;;;;5043373;28;20014;-75
2023/06/12 12:05:22;;;;;;;3.85;2.47;;;34.30;39.10;;;;;;5044383;28;20060;-75
2023/06/12 12:07:55;;;;;;;3.33;2.45;;;34.40;39.00;;;;;;5047979;28;20067;-76
2023/06/12 12:10:22;;;;;;;4.28;2.80;;;34.60;38.70;;;;;;5034378;28;20130;-76
2023/06/12 12:12:50;;;;;;;4.57;2.63;;;34.80;38.50;;;;;;5034214;28;20108;-76
2023/06/12 12:15:17;;;;;;;3.47;2.30;;;34.90;38.20;;;;;;5035817;28;20045;-76
2023/06/12 12:17:43;;;;;;;6.50;3.00;;;35.10;38.20;;;;;;5054193;28;20033;-76
2023/06/12 12:20:20;;;;;;;3.90;2.60;;;35.10;38.00;;;;;;5052513;28;20051;-76
2023/06/12 12:22:48;;;;;;;6.18;2.65;;;35.20;37.70;;;;;;5052862;28;20056;-75
2023/06/12 12:25:16;;;;;;;4.63;2.63;;;35.00;37.70;;;;;;5052670;28;20029;-76
2023/06/12 12:27:44;;;;;;;3.88;2.67;;;35.00;37.70;;;;;;5054203;28;20025;-74
2023/06/12 12:30:10;;;;;;;4.85;2.80;;;35.20;37.50;;;;;;5049171;28;20477;-75
2023/06/12 12:32:36;;;;;;;3.58;2.05;;;35.30;37.30;;;;;;5040953;28;20041;-75
2023/06/12 12:35:03;;;;;;;3.92;2.45;;;35.50;37.10;;;;;;5032552;28;20028;-75
2023/06/12 12:37:28;;;;;;;3.17;2.55;;;35.80;37.00;;;;;;5015587;28;20171;-76
2023/06/12 12:39:54;;;;;;;4.57;2.67;;;36.00;36.90;;;;;;5021575;28;20120;-76
2023/06/12 12:42:20;;;;;;;3.95;2.65;;;36.20;36.80;;;;;;5028796;28;20018;-76
2023/06/12 12:44:46;;;;;;;4.78;2.55;;;36.50;36.60;;;;;;5034493;28;20038;-76
2023/06/12 12:47:11;;;;;;;3.95;2.15;;;36.60;36.30;;;;;;5046546;28;20036;-76
2023/06/12 12:49:37;;;;;;;4.03;2.28;;;36.80;36.20;;;;;;5011485;28;20034;-75
2023/06/12 12:52:04;;;;;;;3.88;2.60;;;36.90;36.00;;;;;;5045526;28;20029;-76